sensor_id;sensor_type;location;lat;lon;timestamp;temperature;humidity
55064;DHT22;40963;52.168;21.296;2023-08-08T00:00:19;15.70;99.90
55064;DHT22;40963;52.168;21.296;2023-08-08T00:02:44;15.70;99.90
55064;DHT22;40963;52.168;21.296;2023-08-08T00:05:10;15.70;99.90
55064;DHT22;40963;52.168;21.296;2023-08-08T00:07:36;15.70;99.90
55064;DHT22;40963;52.168;21.296;2023-08-08T00:10:01;15.70;99.90
55064;DHT22;40963;52.168;21.296;2023-08-08T00:12:27;15.70;99.90
55064;DHT22;40963;52.168;21.296;2023-08-08T00:14:52;15.70;99.90
55064;DHT22;40963;52.168;21.296;2023-08-08T00:17:18;15.70;99.90
55064;DHT22;40963;52.168;21.296;2023-08-08T00:19:44;15.60;99.90
55064;DHT22;40963;52.168;21.296;2023-08-08T00:22:09;15.60;99.90
55064;DHT22;40963;52.168;21.296;2023-08-08T00:24:35;15.60;99.90
55064;DHT22;40963;52.168;21.296;2023-08-08T00:27:00;15.60;99.90
55064;DHT22;40963;52.168;21.296;2023-08-08T00:29:26;15.60;99.90
55064;DHT22;40963;52.168;21.296;2023-08-08T00:31:52;15.50;99.90
55064;DHT22;40963;52.168;21.296;2023-08-08T00:34:18;15.60;99.90
55064;DHT22;40963;52.168;21.296;2023-08-08T00:36:43;15.60;99.90
55064;DHT22;40963;52.168;21.296;2023-08-08T00:39:09;15.50;99.90
55064;DHT22;40963;52.168;21.296;2023-08-08T00:41:35;15.50;99.90
55064;DHT22;40963;52.168;21.296;2023-08-08T00:44:00;15.50;99.90
55064;DHT22;40963;52.168;21.296;2023-08-08T00:46:26;15.50;99.90
55064;DHT22;40963;52.168;21.296;2023-08-08T00:48:52;15.50;99.90
55064;DHT22;40963;52.168;21.296;2023-08-08T00:51:18;15.50;99.90
55064;DHT22;40963;52.168;21.296;2023-08-08T00:53:44;15.50;99.90
55064;DHT22;40963;52.168;21.296;2023-08-08T00:56:12;15.40;99.90
55064;DHT22;40963;52.168;21.296;2023-08-08T00:58:39;15.50;99.90
55064;DHT22;40963;52.168;21.296;2023-08-08T01:01:05;15.40;99.90
55064;DHT22;40963;52.168;21.296;2023-08-08T01:03:30;15.40;99.90
55064;DHT22;40963;52.168;21.296;2023-08-08T01:06:19;15.40;99.90
55064;DHT22;40963;52.168;21.296;2023-08-08T01:08:54;15.40;99.90
55064;DHT22;40963;52.168;21.296;2023-08-08T01:11:21;15.40;99.90
55064;DHT22;40963;52.168;21.296;2023-08-08T01:13:48;15.40;99.90
55064;DHT22;40963;52.168;21.296;2023-08-08T01:16:13;15.40;99.90
55064;DHT22;40963;52.168;21.296;2023-08-08T01:18:41;15.30;99.90
55064;DHT22;40963;52.168;21.296;2023-08-08T01:21:08;15.30;99.90
55064;DHT22;40963;52.168;21.296;2023-08-08T01:23:43;15.40;99.90
55064;DHT22;40963;52.168;21.296;2023-08-08T01:26:11;15.30;99.90
55064;DHT22;40963;52.168;21.296;2023-08-08T01:28:38;15.30;99.90
55064;DHT22;40963;52.168;21.296;2023-08-08T01:31:03;15.30;99.90
55064;DHT22;40963;52.168;21.296;2023-08-08T01:33:29;15.30;99.90
55064;DHT22;40963;52.168;21.296;2023-08-08T01:36:02;15.40;99.90
55064;DHT22;40963;52.168;21.296;2023-08-08T01:38:40;15.30;99.90
55064;DHT22;40963;52.168;21.296;2023-08-08T01:41:07;15.30;99.90
55064;DHT22;40963;52.168;21.296;2023-08-08T01:43:34;15.30;99.90
55064;DHT22;40963;52.168;21.296;2023-08-08T01:46:00;15.30;99.90
55064;DHT22;40963;52.168;21.296;2023-08-08T01:48:28;15.30;99.90
55064;DHT22;40963;52.168;21.296;2023-08-08T01:50:53;15.30;99.90
55064;DHT22;40963;52.168;21.296;2023-08-08T01:53:19;15.30;99.90
55064;DHT22;40963;52.168;21.296;2023-08-08T01:55:45;15.30;99.90
55064;DHT22;40963;52.168;21.296;2023-08-08T01:58:10;15.30;99.90
55064;DHT22;40963;52.168;21.296;2023-08-08T02:00:36;15.20;99.90
55064;DHT22;40963;52.168;21.296;2023-08-08T02:03:02;15.20;99.90
55064;DHT22;40963;52.168;21.296;2023-08-08T02:05:28;15.20;99.90
55064;DHT22;40963;52.168;21.296;2023-08-08T02:07:53;15.10;99.90
55064;DHT22;40963;52.168;21.296;2023-08-08T02:10:19;15.20;99.90
55064;DHT22;40963;52.168;21.296;2023-08-08T02:12:44;15.10;99.90
55064;DHT22;40963;52.168;21.296;2023-08-08T02:15:10;15.10;99.90
55064;DHT22;40963;52.168;21.296;2023-08-08T02:17:38;15.10;99.90
55064;DHT22;40963;52.168;21.296;2023-08-08T02:20:05;15.10;99.90
55064;DHT22;40963;52.168;21.296;2023-08-08T02:22:31;15.10;99.90
55064;DHT22;40963;52.168;21.296;2023-08-08T02:24:57;15.10;99.90
55064;DHT22;40963;52.168;21.296;2023-08-08T02:27:23;15.10;99.90
55064;DHT22;40963;52.168;21.296;2023-08-08T02:29:48;15.10;99.90
55064;DHT22;40963;52.168;21.296;2023-08-08T02:32:14;15.10;99.90
55064;DHT22;40963;52.168;21.296;2023-08-08T02:34:40;15.10;99.90
55064;DHT22;40963;52.168;21.296;2023-08-08T02:37:05;15.00;99.90
55064;DHT22;40963;52.168;21.296;2023-08-08T02:39:31;15.00;99.90
55064;DHT22;40963;52.168;21.296;2023-08-08T02:41:57;15.00;99.90
55064;DHT22;40963;52.168;21.296;2023-08-08T02:44:22;15.00;99.90
55064;DHT22;40963;52.168;21.296;2023-08-08T02:46:48;15.00;99.90
55064;DHT22;40963;52.168;21.296;2023-08-08T02:49:14;15.00;99.90
55064;DHT22;40963;52.168;21.296;2023-08-08T02:51:40;15.00;99.90
55064;DHT22;40963;52.168;21.296;2023-08-08T02:54:05;15.00;99.90
55064;DHT22;40963;52.168;21.296;2023-08-08T02:56:31;14.90;99.90
55064;DHT22;40963;52.168;21.296;2023-08-08T02:58:57;14.90;99.90
55064;DHT22;40963;52.168;21.296;2023-08-08T03:01:23;14.90;99.90
55064;DHT22;40963;52.168;21.296;2023-08-08T03:03:49;14.90;99.90
55064;DHT22;40963;52.168;21.296;2023-08-08T03:06:15;14.80;99.90
55064;DHT22;40963;52.168;21.296;2023-08-08T03:08:41;14.80;99.90
55064;DHT22;40963;52.168;21.296;2023-08-08T03:11:07;14.80;99.90
55064;DHT22;40963;52.168;21.296;2023-08-08T03:13:32;14.70;99.90
55064;DHT22;40963;52.168;21.296;2023-08-08T03:15:58;14.70;99.90
55064;DHT22;40963;52.168;21.296;2023-08-08T03:18:23;14.70;99.90
55064;DHT22;40963;52.168;21.296;2023-08-08T03:20:51;14.60;99.90
55064;DHT22;40963;52.168;21.296;2023-08-08T03:23:17;14.60;99.90
55064;DHT22;40963;52.168;21.296;2023-08-08T03:25:43;14.60;99.90
55064;DHT22;40963;52.168;21.296;2023-08-08T03:28:09;14.50;99.90
55064;DHT22;40963;52.168;21.296;2023-08-08T03:30:37;14.50;99.90
55064;DHT22;40963;52.168;21.296;2023-08-08T03:33:03;14.50;99.90
55064;DHT22;40963;52.168;21.296;2023-08-08T03:35:29;14.40;99.90
55064;DHT22;40963;52.168;21.296;2023-08-08T03:37:55;14.40;99.90
55064;DHT22;40963;52.168;21.296;2023-08-08T03:40:20;14.40;99.90
55064;DHT22;40963;52.168;21.296;2023-08-08T03:42:46;14.40;99.90
55064;DHT22;40963;52.168;21.296;2023-08-08T03:45:12;14.30;99.90
55064;DHT22;40963;52.168;21.296;2023-08-08T03:47:37;14.30;99.90
55064;DHT22;40963;52.168;21.296;2023-08-08T03:50:04;14.30;99.90
55064;DHT22;40963;52.168;21.296;2023-08-08T03:52:30;14.30;99.90
55064;DHT22;40963;52.168;21.296;2023-08-08T03:54:56;14.30;99.90
55064;DHT22;40963;52.168;21.296;2023-08-08T03:57:22;14.30;99.90
55064;DHT22;40963;52.168;21.296;2023-08-08T03:59:48;14.20;99.90
55064;DHT22;40963;52.168;21.296;2023-08-08T04:02:13;14.20;99.90
55064;DHT22;40963;52.168;21.296;2023-08-08T04:04:39;14.20;99.90
55064;DHT22;40963;52.168;21.296;2023-08-08T04:07:04;14.20;99.90
55064;DHT22;40963;52.168;21.296;2023-08-08T04:09:30;14.20;99.90
55064;DHT22;40963;52.168;21.296;2023-08-08T04:11:56;14.20;99.90
55064;DHT22;40963;52.168;21.296;2023-08-08T04:14:22;14.20;99.90
55064;DHT22;40963;52.168;21.296;2023-08-08T04:16:47;14.20;99.90
55064;DHT22;40963;52.168;21.296;2023-08-08T04:19:13;14.20;99.90
55064;DHT22;40963;52.168;21.296;2023-08-08T04:21:39;14.20;99.90
55064;DHT22;40963;52.168;21.296;2023-08-08T04:24:04;14.20;99.90
55064;DHT22;40963;52.168;21.296;2023-08-08T04:26:33;14.20;99.90
55064;DHT22;40963;52.168;21.296;2023-08-08T04:28:59;14.20;99.90
55064;DHT22;40963;52.168;21.296;2023-08-08T04:31:24;14.20;99.90
55064;DHT22;40963;52.168;21.296;2023-08-08T04:33:51;14.20;99.90
55064;DHT22;40963;52.168;21.296;2023-08-08T04:36:17;14.20;99.90
55064;DHT22;40963;52.168;21.296;2023-08-08T04:38:43;14.20;99.90
55064;DHT22;40963;52.168;21.296;2023-08-08T04:41:08;14.30;99.90
55064;DHT22;40963;52.168;21.296;2023-08-08T04:43:34;14.30;99.90
55064;DHT22;40963;52.168;21.296;2023-08-08T04:46:00;14.20;99.90
55064;DHT22;40963;52.168;21.296;2023-08-08T04:48:25;14.30;99.90
55064;DHT22;40963;52.168;21.296;2023-08-08T04:50:51;14.30;99.90
55064;DHT22;40963;52.168;21.296;2023-08-08T04:53:16;14.30;99.90
55064;DHT22;40963;52.168;21.296;2023-08-08T04:55:42;14.30;99.90
55064;DHT22;40963;52.168;21.296;2023-08-08T04:58:08;14.30;99.90
55064;DHT22;40963;52.168;21.296;2023-08-08T05:00:33;14.40;99.90
55064;DHT22;40963;52.168;21.296;2023-08-08T05:02:59;14.40;99.90
55064;DHT22;40963;52.168;21.296;2023-08-08T05:05:25;14.50;99.90
55064;DHT22;40963;52.168;21.296;2023-08-08T05:07:50;14.50;99.90
55064;DHT22;40963;52.168;21.296;2023-08-08T05:10:16;14.50;99.90
55064;DHT22;40963;52.168;21.296;2023-08-08T05:12:42;14.50;99.90
55064;DHT22;40963;52.168;21.296;2023-08-08T05:15:08;14.50;99.90
55064;DHT22;40963;52.168;21.296;2023-08-08T05:17:33;14.50;99.90
55064;DHT22;40963;52.168;21.296;2023-08-08T05:19:59;14.50;99.90
55064;DHT22;40963;52.168;21.296;2023-08-08T05:22:25;14.60;99.90
55064;DHT22;40963;52.168;21.296;2023-08-08T05:24:50;14.60;99.90
55064;DHT22;40963;52.168;21.296;2023-08-08T05:27:16;14.60;99.90
55064;DHT22;40963;52.168;21.296;2023-08-08T05:29:42;14.70;99.90
55064;DHT22;40963;52.168;21.296;2023-08-08T05:32:08;14.70;99.90
55064;DHT22;40963;52.168;21.296;2023-08-08T05:34:34;14.70;99.90
55064;DHT22;40963;52.168;21.296;2023-08-08T05:37:00;14.70;99.90
55064;DHT22;40963;52.168;21.296;2023-08-08T05:39:25;14.80;99.90
55064;DHT22;40963;52.168;21.296;2023-08-08T05:41:52;14.80;99.90
55064;DHT22;40963;52.168;21.296;2023-08-08T05:44:17;14.80;99.90
55064;DHT22;40963;52.168;21.296;2023-08-08T05:46:43;14.80;99.90
55064;DHT22;40963;52.168;21.296;2023-08-08T05:49:09;14.90;99.90
55064;DHT22;40963;52.168;21.296;2023-08-08T05:51:34;14.90;99.90
55064;DHT22;40963;52.168;21.296;2023-08-08T05:54:00;15.00;99.90
55064;DHT22;40963;52.168;21.296;2023-08-08T05:56:34;15.10;99.90
55064;DHT22;40963;52.168;21.296;2023-08-08T05:59:00;15.10;99.90
55064;DHT22;40963;52.168;21.296;2023-08-08T06:01:25;15.20;99.90
55064;DHT22;40963;52.168;21.296;2023-08-08T06:03:51;15.20;99.90
55064;DHT22;40963;52.168;21.296;2023-08-08T06:06:18;15.20;99.90
55064;DHT22;40963;52.168;21.296;2023-08-08T06:08:44;15.30;99.90
55064;DHT22;40963;52.168;21.296;2023-08-08T06:11:09;15.40;99.90
55064;DHT22;40963;52.168;21.296;2023-08-08T06:13:36;15.40;99.90
55064;DHT22;40963;52.168;21.296;2023-08-08T06:16:01;15.50;99.90
55064;DHT22;40963;52.168;21.296;2023-08-08T06:18:32;15.60;99.90
55064;DHT22;40963;52.168;21.296;2023-08-08T06:20:57;15.60;99.90
55064;DHT22;40963;52.168;21.296;2023-08-08T06:23:23;15.60;99.90
55064;DHT22;40963;52.168;21.296;2023-08-08T06:25:49;15.60;99.90
55064;DHT22;40963;52.168;21.296;2023-08-08T06:28:14;15.70;99.90
55064;DHT22;40963;52.168;21.296;2023-08-08T06:30:40;15.70;99.90
55064;DHT22;40963;52.168;21.296;2023-08-08T06:33:05;15.70;99.90
55064;DHT22;40963;52.168;21.296;2023-08-08T06:35:31;15.70;99.90
55064;DHT22;40963;52.168;21.296;2023-08-08T06:37:57;15.80;99.90
55064;DHT22;40963;52.168;21.296;2023-08-08T06:40:22;15.80;99.90
55064;DHT22;40963;52.168;21.296;2023-08-08T06:42:49;15.80;99.90
55064;DHT22;40963;52.168;21.296;2023-08-08T06:45:14;15.90;99.90
55064;DHT22;40963;52.168;21.296;2023-08-08T06:47:40;15.90;99.90
55064;DHT22;40963;52.168;21.296;2023-08-08T06:50:06;16.00;99.90
55064;DHT22;40963;52.168;21.296;2023-08-08T06:52:32;16.00;99.90
55064;DHT22;40963;52.168;21.296;2023-08-08T06:55:01;16.00;99.90
55064;DHT22;40963;52.168;21.296;2023-08-08T06:57:29;16.00;99.90
55064;DHT22;40963;52.168;21.296;2023-08-08T06:59:55;15.90;99.90
55064;DHT22;40963;52.168;21.296;2023-08-08T07:02:20;15.90;99.90
55064;DHT22;40963;52.168;21.296;2023-08-08T07:04:46;15.90;99.90
55064;DHT22;40963;52.168;21.296;2023-08-08T07:07:12;15.90;99.90
55064;DHT22;40963;52.168;21.296;2023-08-08T07:09:37;15.90;99.90
55064;DHT22;40963;52.168;21.296;2023-08-08T07:12:04;15.90;99.90
55064;DHT22;40963;52.168;21.296;2023-08-08T07:14:30;16.00;99.90
55064;DHT22;40963;52.168;21.296;2023-08-08T07:16:55;16.00;99.70
55064;DHT22;40963;52.168;21.296;2023-08-08T07:19:21;16.00;99.60
55064;DHT22;40963;52.168;21.296;2023-08-08T07:21:47;16.00;99.00
55064;DHT22;40963;52.168;21.296;2023-08-08T07:24:13;16.10;99.00
55064;DHT22;40963;52.168;21.296;2023-08-08T07:26:38;16.10;98.70
55064;DHT22;40963;52.168;21.296;2023-08-08T07:29:04;16.10;98.70
55064;DHT22;40963;52.168;21.296;2023-08-08T07:31:31;16.10;98.40
55064;DHT22;40963;52.168;21.296;2023-08-08T07:33:57;16.20;98.20
55064;DHT22;40963;52.168;21.296;2023-08-08T07:36:23;16.30;98.10
55064;DHT22;40963;52.168;21.296;2023-08-08T07:38:48;16.30;97.90
55064;DHT22;40963;52.168;21.296;2023-08-08T07:41:14;16.40;97.80
55064;DHT22;40963;52.168;21.296;2023-08-08T07:43:39;16.40;97.90
55064;DHT22;40963;52.168;21.296;2023-08-08T07:46:05;16.50;98.00
55064;DHT22;40963;52.168;21.296;2023-08-08T07:48:31;16.60;97.30
55064;DHT22;40963;52.168;21.296;2023-08-08T07:50:57;16.60;96.90
55064;DHT22;40963;52.168;21.296;2023-08-08T07:53:22;16.80;96.40
55064;DHT22;40963;52.168;21.296;2023-08-08T07:55:48;16.80;95.90
55064;DHT22;40963;52.168;21.296;2023-08-08T07:58:13;17.00;95.70
55064;DHT22;40963;52.168;21.296;2023-08-08T08:00:39;17.20;94.90
55064;DHT22;40963;52.168;21.296;2023-08-08T08:03:05;17.20;94.40
55064;DHT22;40963;52.168;21.296;2023-08-08T08:05:31;17.30;93.60
55064;DHT22;40963;52.168;21.296;2023-08-08T08:07:57;17.40;93.20
55064;DHT22;40963;52.168;21.296;2023-08-08T08:10:23;17.50;93.10
55064;DHT22;40963;52.168;21.296;2023-08-08T08:12:48;17.50;93.00
55064;DHT22;40963;52.168;21.296;2023-08-08T08:15:14;17.60;92.70
55064;DHT22;40963;52.168;21.296;2023-08-08T08:17:40;17.60;92.50
55064;DHT22;40963;52.168;21.296;2023-08-08T08:20:07;17.60;92.20
55064;DHT22;40963;52.168;21.296;2023-08-08T08:22:36;17.70;92.30
55064;DHT22;40963;52.168;21.296;2023-08-08T08:25:04;17.80;91.80
55064;DHT22;40963;52.168;21.296;2023-08-08T08:27:29;17.90;91.00
55064;DHT22;40963;52.168;21.296;2023-08-08T08:29:55;17.90;90.20
55064;DHT22;40963;52.168;21.296;2023-08-08T08:32:21;18.00;89.20
55064;DHT22;40963;52.168;21.296;2023-08-08T08:34:46;18.00;88.10
55064;DHT22;40963;52.168;21.296;2023-08-08T08:37:12;18.00;86.90
55064;DHT22;40963;52.168;21.296;2023-08-08T08:39:37;18.00;84.10
55064;DHT22;40963;52.168;21.296;2023-08-08T08:42:04;17.90;83.40
55064;DHT22;40963;52.168;21.296;2023-08-08T08:44:31;17.80;83.90
55064;DHT22;40963;52.168;21.296;2023-08-08T08:47:01;17.80;83.90
55064;DHT22;40963;52.168;21.296;2023-08-08T08:49:30;17.80;84.40
55064;DHT22;40963;52.168;21.296;2023-08-08T08:51:57;17.90;84.30
55064;DHT22;40963;52.168;21.296;2023-08-08T08:54:27;18.00;83.50
55064;DHT22;40963;52.168;21.296;2023-08-08T08:56:55;17.90;82.00
55064;DHT22;40963;52.168;21.296;2023-08-08T08:59:22;18.00;80.50
55064;DHT22;40963;52.168;21.296;2023-08-08T09:01:47;18.00;79.40
55064;DHT22;40963;52.168;21.296;2023-08-08T09:04:15;18.00;78.00
55064;DHT22;40963;52.168;21.296;2023-08-08T09:06:42;18.00;78.10
55064;DHT22;40963;52.168;21.296;2023-08-08T09:09:08;18.00;78.70
55064;DHT22;40963;52.168;21.296;2023-08-08T09:11:34;18.10;80.30
55064;DHT22;40963;52.168;21.296;2023-08-08T09:14:00;18.20;81.70
55064;DHT22;40963;52.168;21.296;2023-08-08T09:16:27;18.40;81.90
55064;DHT22;40963;52.168;21.296;2023-08-08T09:18:53;18.50;80.70
55064;DHT22;40963;52.168;21.296;2023-08-08T09:21:19;18.60;78.40
55064;DHT22;40963;52.168;21.296;2023-08-08T09:23:44;18.60;77.40
55064;DHT22;40963;52.168;21.296;2023-08-08T09:26:13;18.60;75.80
55064;DHT22;40963;52.168;21.296;2023-08-08T09:28:39;18.50;75.60
55064;DHT22;40963;52.168;21.296;2023-08-08T09:31:05;18.40;74.20
55064;DHT22;40963;52.168;21.296;2023-08-08T09:33:30;18.30;73.60
55064;DHT22;40963;52.168;21.296;2023-08-08T09:35:56;18.20;73.80
55064;DHT22;40963;52.168;21.296;2023-08-08T09:38:21;18.10;73.90
55064;DHT22;40963;52.168;21.296;2023-08-08T09:40:47;18.10;74.50
55064;DHT22;40963;52.168;21.296;2023-08-08T09:43:13;18.10;74.80
55064;DHT22;40963;52.168;21.296;2023-08-08T09:45:39;18.10;74.50
55064;DHT22;40963;52.168;21.296;2023-08-08T09:48:07;18.00;73.70
55064;DHT22;40963;52.168;21.296;2023-08-08T09:50:35;18.10;74.00
55064;DHT22;40963;52.168;21.296;2023-08-08T09:53:04;18.10;73.70
55064;DHT22;40963;52.168;21.296;2023-08-08T09:55:30;18.10;72.60
55064;DHT22;40963;52.168;21.296;2023-08-08T09:57:57;18.10;71.90
55064;DHT22;40963;52.168;21.296;2023-08-08T10:00:24;18.00;71.50
55064;DHT22;40963;52.168;21.296;2023-08-08T10:02:53;18.00;71.00
55064;DHT22;40963;52.168;21.296;2023-08-08T10:05:19;18.10;71.80
55064;DHT22;40963;52.168;21.296;2023-08-08T10:07:45;18.10;72.00
55064;DHT22;40963;52.168;21.296;2023-08-08T10:10:11;18.20;72.50
55064;DHT22;40963;52.168;21.296;2023-08-08T10:12:38;18.20;72.10
55064;DHT22;40963;52.168;21.296;2023-08-08T10:15:07;18.30;71.50
55064;DHT22;40963;52.168;21.296;2023-08-08T10:17:41;18.20;71.20
55064;DHT22;40963;52.168;21.296;2023-08-08T10:20:09;18.20;71.50
55064;DHT22;40963;52.168;21.296;2023-08-08T10:22:41;18.20;71.10
55064;DHT22;40963;52.168;21.296;2023-08-08T10:25:07;18.20;71.00
55064;DHT22;40963;52.168;21.296;2023-08-08T10:27:35;18.10;70.60
55064;DHT22;40963;52.168;21.296;2023-08-08T10:30:05;18.10;71.80
55064;DHT22;40963;52.168;21.296;2023-08-08T10:32:40;18.20;71.70
55064;DHT22;40963;52.168;21.296;2023-08-08T10:35:07;18.40;72.40
55064;DHT22;40963;52.168;21.296;2023-08-08T10:37:33;18.50;70.90
55064;DHT22;40963;52.168;21.296;2023-08-08T10:40:00;18.50;68.80
55064;DHT22;40963;52.168;21.296;2023-08-08T10:42:27;18.40;67.80
55064;DHT22;40963;52.168;21.296;2023-08-08T10:45:00;18.50;67.60
55064;DHT22;40963;52.168;21.296;2023-08-08T10:47:36;18.40;66.80
55064;DHT22;40963;52.168;21.296;2023-08-08T10:50:15;18.40;67.20
55064;DHT22;40963;52.168;21.296;2023-08-08T10:55:32;18.40;66.80
55064;DHT22;40963;52.168;21.296;2023-08-08T11:00:30;18.50;66.80
55064;DHT22;40963;52.168;21.296;2023-08-08T11:02:57;18.60;66.90
55064;DHT22;40963;52.168;21.296;2023-08-08T11:05:23;18.70;66.80
55064;DHT22;40963;52.168;21.296;2023-08-08T11:07:49;18.70;66.80
55064;DHT22;40963;52.168;21.296;2023-08-08T11:10:15;18.80;66.00
55064;DHT22;40963;52.168;21.296;2023-08-08T11:12:41;18.90;65.90
55064;DHT22;40963;52.168;21.296;2023-08-08T11:15:07;19.00;66.30
55064;DHT22;40963;52.168;21.296;2023-08-08T11:17:33;19.20;66.70
55064;DHT22;40963;52.168;21.296;2023-08-08T11:20:00;19.40;65.40
55064;DHT22;40963;52.168;21.296;2023-08-08T11:22:27;19.40;64.00
55064;DHT22;40963;52.168;21.296;2023-08-08T11:24:52;19.30;62.70
55064;DHT22;40963;52.168;21.296;2023-08-08T11:27:18;19.20;62.60
55064;DHT22;40963;52.168;21.296;2023-08-08T11:29:50;19.20;62.70
55064;DHT22;40963;52.168;21.296;2023-08-08T11:32:16;19.20;63.10
55064;DHT22;40963;52.168;21.296;2023-08-08T11:34:42;19.30;62.60
55064;DHT22;40963;52.168;21.296;2023-08-08T11:37:08;19.30;61.90
55064;DHT22;40963;52.168;21.296;2023-08-08T11:39:34;19.30;60.80
55064;DHT22;40963;52.168;21.296;2023-08-08T11:42:00;19.30;60.60
55064;DHT22;40963;52.168;21.296;2023-08-08T11:44:26;19.40;60.20
55064;DHT22;40963;52.168;21.296;2023-08-08T11:46:52;19.30;59.80
55064;DHT22;40963;52.168;21.296;2023-08-08T11:49:18;19.40;60.20
55064;DHT22;40963;52.168;21.296;2023-08-08T11:51:44;19.40;59.60
55064;DHT22;40963;52.168;21.296;2023-08-08T11:54:11;19.30;59.40
55064;DHT22;40963;52.168;21.296;2023-08-08T11:56:38;19.30;59.30
55064;DHT22;40963;52.168;21.296;2023-08-08T11:59:04;19.40;59.30
55064;DHT22;40963;52.168;21.296;2023-08-08T12:01:32;19.50;59.40
55064;DHT22;40963;52.168;21.296;2023-08-08T12:04:05;19.60;59.30
55064;DHT22;40963;52.168;21.296;2023-08-08T12:06:30;19.60;59.10
55064;DHT22;40963;52.168;21.296;2023-08-08T12:08:56;19.70;59.00
55064;DHT22;40963;52.168;21.296;2023-08-08T12:11:22;19.60;58.50
55064;DHT22;40963;52.168;21.296;2023-08-08T12:13:47;19.60;58.70
55064;DHT22;40963;52.168;21.296;2023-08-08T12:16:14;19.70;58.50
55064;DHT22;40963;52.168;21.296;2023-08-08T12:18:40;19.70;58.00
55064;DHT22;40963;52.168;21.296;2023-08-08T12:21:09;19.90;57.70
55064;DHT22;40963;52.168;21.296;2023-08-08T12:23:36;19.90;56.60
55064;DHT22;40963;52.168;21.296;2023-08-08T12:26:06;19.90;56.20
55064;DHT22;40963;52.168;21.296;2023-08-08T12:28:32;19.90;56.30
55064;DHT22;40963;52.168;21.296;2023-08-08T12:30:58;19.90;56.60
55064;DHT22;40963;52.168;21.296;2023-08-08T12:33:24;19.90;56.60
55064;DHT22;40963;52.168;21.296;2023-08-08T12:35:50;20.00;56.70
55064;DHT22;40963;52.168;21.296;2023-08-08T12:38:15;20.20;56.60
55064;DHT22;40963;52.168;21.296;2023-08-08T12:40:41;20.30;55.90
55064;DHT22;40963;52.168;21.296;2023-08-08T12:43:07;20.30;55.60
55064;DHT22;40963;52.168;21.296;2023-08-08T12:45:33;20.30;55.00
55064;DHT22;40963;52.168;21.296;2023-08-08T12:47:58;20.30;54.90
55064;DHT22;40963;52.168;21.296;2023-08-08T12:50:24;20.40;54.50
55064;DHT22;40963;52.168;21.296;2023-08-08T12:52:50;20.40;54.10
55064;DHT22;40963;52.168;21.296;2023-08-08T12:55:16;20.40;54.10
55064;DHT22;40963;52.168;21.296;2023-08-08T12:57:43;20.40;54.10
55064;DHT22;40963;52.168;21.296;2023-08-08T13:00:10;20.40;53.90
55064;DHT22;40963;52.168;21.296;2023-08-08T13:02:36;20.30;53.90
55064;DHT22;40963;52.168;21.296;2023-08-08T13:05:02;20.20;54.30
55064;DHT22;40963;52.168;21.296;2023-08-08T13:07:29;20.10;54.70
55064;DHT22;40963;52.168;21.296;2023-08-08T13:09:54;20.00;54.90
55064;DHT22;40963;52.168;21.296;2023-08-08T13:12:20;20.00;55.40
55064;DHT22;40963;52.168;21.296;2023-08-08T13:14:46;20.00;55.20
55064;DHT22;40963;52.168;21.296;2023-08-08T13:17:12;20.10;55.30
55064;DHT22;40963;52.168;21.296;2023-08-08T13:19:38;20.10;55.10
55064;DHT22;40963;52.168;21.296;2023-08-08T13:22:03;20.10;54.60
55064;DHT22;40963;52.168;21.296;2023-08-08T13:24:29;20.10;54.80
55064;DHT22;40963;52.168;21.296;2023-08-08T13:26:54;20.10;54.70
55064;DHT22;40963;52.168;21.296;2023-08-08T13:29:20;20.10;54.10
55064;DHT22;40963;52.168;21.296;2023-08-08T13:31:46;20.00;54.20
55064;DHT22;40963;52.168;21.296;2023-08-08T13:34:11;20.00;54.20
55064;DHT22;40963;52.168;21.296;2023-08-08T13:36:37;20.00;54.60
55064;DHT22;40963;52.168;21.296;2023-08-08T13:39:03;20.00;54.50
55064;DHT22;40963;52.168;21.296;2023-08-08T13:41:29;20.10;54.60
55064;DHT22;40963;52.168;21.296;2023-08-08T13:43:55;20.10;54.60
55064;DHT22;40963;52.168;21.296;2023-08-08T13:46:21;20.30;54.50
55064;DHT22;40963;52.168;21.296;2023-08-08T13:48:47;20.30;53.80
55064;DHT22;40963;52.168;21.296;2023-08-08T13:51:12;20.40;54.00
55064;DHT22;40963;52.168;21.296;2023-08-08T13:53:38;20.40;54.20
55064;DHT22;40963;52.168;21.296;2023-08-08T13:56:04;20.40;54.40
55064;DHT22;40963;52.168;21.296;2023-08-08T13:58:30;20.30;54.20
55064;DHT22;40963;52.168;21.296;2023-08-08T14:00:55;20.20;54.30
55064;DHT22;40963;52.168;21.296;2023-08-08T14:03:23;20.10;54.20
55064;DHT22;40963;52.168;21.296;2023-08-08T14:05:49;20.00;54.30
55064;DHT22;40963;52.168;21.296;2023-08-08T14:08:15;19.80;54.70
55064;DHT22;40963;52.168;21.296;2023-08-08T14:10:41;19.70;55.00
55064;DHT22;40963;52.168;21.296;2023-08-08T14:13:07;19.70;55.60
55064;DHT22;40963;52.168;21.296;2023-08-08T14:15:32;19.70;55.90
55064;DHT22;40963;52.168;21.296;2023-08-08T14:17:58;19.70;56.20
55064;DHT22;40963;52.168;21.296;2023-08-08T14:20:25;19.60;56.60
55064;DHT22;40963;52.168;21.296;2023-08-08T14:22:51;19.70;57.00
55064;DHT22;40963;52.168;21.296;2023-08-08T14:25:16;19.70;57.40
55064;DHT22;40963;52.168;21.296;2023-08-08T14:27:42;19.70;57.40
55064;DHT22;40963;52.168;21.296;2023-08-08T14:30:08;19.70;57.20
55064;DHT22;40963;52.168;21.296;2023-08-08T14:32:33;19.70;57.50
55064;DHT22;40963;52.168;21.296;2023-08-08T14:34:59;19.70;58.20
55064;DHT22;40963;52.168;21.296;2023-08-08T14:37:25;19.70;58.50
55064;DHT22;40963;52.168;21.296;2023-08-08T14:39:50;19.70;59.00
55064;DHT22;40963;52.168;21.296;2023-08-08T14:42:16;19.70;59.40
55064;DHT22;40963;52.168;21.296;2023-08-08T14:44:42;19.80;59.80
55064;DHT22;40963;52.168;21.296;2023-08-08T14:47:07;19.80;59.40
55064;DHT22;40963;52.168;21.296;2023-08-08T14:49:33;19.80;58.90
55064;DHT22;40963;52.168;21.296;2023-08-08T14:51:58;19.80;58.60
55064;DHT22;40963;52.168;21.296;2023-08-08T14:54:24;19.70;58.70
55064;DHT22;40963;52.168;21.296;2023-08-08T14:56:50;19.80;58.50
55064;DHT22;40963;52.168;21.296;2023-08-08T14:59:16;19.70;58.30
55064;DHT22;40963;52.168;21.296;2023-08-08T15:01:42;19.80;57.80
55064;DHT22;40963;52.168;21.296;2023-08-08T15:04:08;19.80;57.40
55064;DHT22;40963;52.168;21.296;2023-08-08T15:06:35;19.90;57.20
55064;DHT22;40963;52.168;21.296;2023-08-08T15:09:01;20.00;57.30
55064;DHT22;40963;52.168;21.296;2023-08-08T15:11:27;20.10;57.40
55064;DHT22;40963;52.168;21.296;2023-08-08T15:13:53;20.20;57.40